Bloomer, WI (54724)

8:31 PM CDT on September 26, 2016 (GMT -0500)
North Side Bloomer | | Change Station

Elev 1010 ft 45.11 °N, 91.49 °W | Updated 4 seconds ago

Clear
Clear
55.6 °F
Feels Like 55.6 °F
N
0.4
Wind Variable Wind from WSW
Gusts 2.5 mph

Today
High -- | Low -- °F
--% Chance of Precip.
Yesterday
High -- | Low -- °F
Precip. -- in
Pressure 29.84 in
Visibility 10.0 miles
Clouds Clear
Dew Point 42 °F
Humidity 61%
Rainfall 0.00 in
Snow Depth Not available.
6:58 AM 6:54 PM
Waning Crescent, 15% visible
METAR KEAU 270056Z 27007KT 10SM CLR 13/04 A2983 RMK AO2 SLP104 T01280039
Pressure 29.84 in
Visibility 10.0 miles
Clouds Clear
Dew Point 42 °F
Humidity 61%
Rainfall 0.00 in
Snow Depth Not available.
6:58 AM 6:54 PM
Waning Crescent, 15% visible
METAR KEAU 270056Z 27007KT 10SM CLR 13/04 A2983 RMK AO2 SLP104 T01280039

10-Day Weather Forecast

Almanac

Astronomy

Sep. 26, 2016 Rise Set
Actual Time
Civil Twilight
Nautical Twilight
Astronomical Twilight
Moon
Length of Visible Light
Length of Day
Tomorrow will be .
, % of the Moon is Illuminated

Today's Extremes

State Highs State Lows

Community

WunderPhotos

Upload Photos

1,942,008 photos uploaded!

WunderBlog® & News

Nearby

Air Quality

  Air Quality AQ Index Pollutant
Not available.

Snow Depth

Station Depth Elevation

Earthquake Activity

City Distance Mag. Time & Date
Minimum magnitude displayed is 2.5.

Coastal Water Temperatures

Place Temperature

Stations

Nearby Weather Stations

Station Location Temp. Windchill Dew Point Humidity Wind Precip. Elev Updated Type
                   

Watches & Warnings

There are currently no watches in effect.